• Join FlightAware (Why Join?)
  • Login
  • US Flag 
06:02PM EDT


 

Airport Tracker/Info


-or-


 

Live Flight TrackerFlight Track Log ✈ AWE3314 ✈ 25-May-2014 ✈ KDTW - KPHL

Flight Track Log - Related Links

Times and Time Zones

All times are in EDT time to prevent confusion due to time zone crossing. See the AWE3314 flight status page for this flight to view local times or setup timezone preferences in your user account.

Time Position Orientation Groundspeed Altitude Reporting Facility
EDT Latitude Longitude Course Direction KTS MPH feet Rate Location/Type
06:02PM 42.2081 -83.3675 90° East 148 170 1,400  Level Cleveland Center
06:03PM 42.1206 -83.3606 177° South 238 274 5,100 1,980 Climbing Cleveland Center
06:04PM 42.1122 -83.3589 172° South 216 249 5,400 3,000 Climbing Cleveland Center
06:04PM 42.0817 -83.2961 123° Southeast 286 329 7,900 3,840 Climbing Cleveland Center
06:05PM 42.2167 -82.8299 90° East  Level FlightAware Approximate
06:05PM 42.0697 -83.2508 110° East 283 326 9,400  Level Cleveland Center
06:06PM 42.2167 -82.6989 90° East  Level FlightAware Approximate
06:06PM 42.0878 -83.1408 77° East 312 359 11,200  Level Cleveland Center
06:07PM 42.2167 -82.5680 90° East  Level FlightAware Approximate
06:07PM 42.1117 -83.0211 75° East 328 377 13,900  Level Cleveland Center
06:08PM 42.1364 -82.8947 75° East 348 400 16,800 2,460 Climbing Cleveland Center
06:09PM 42.1617 -82.7653 75° East 355 409 19,100 2,400 Climbing Cleveland Center
06:10PM 42.1947 -82.6019 75° East 374 430 21,800 2,220 Climbing Cleveland Center
06:11PM 42.2214 -82.4603 76° East 388 447 23,800 1,920 Climbing Cleveland Center
06:12PM 42.2156 -82.3106 93° East 404 465 25,800 1,740 Climbing Cleveland Center
06:13PM 42.2042 -82.1581 96° East 405 466 27,400 1,560 Climbing Cleveland Center
06:14PM 42.1892 -81.9800 96° East 424 488 29,100 1,380 Climbing Cleveland Center
06:15PM 42.1164 -81.8489 127° Southeast 442 509 30,300 1,020 Climbing Cleveland Center
06:16PM 42.0192 -81.7392 140° Southeast 449 517 31,300 1,200 Climbing Cleveland Center
06:17PM 41.9219 -81.6258 139° Southeast 454 522 32,800 780 Climbing Cleveland Center
06:18PM 41.8242 -81.5139 140° Southeast 454 522 33,000 60 Climbing Cleveland Center
06:19PM 41.7242 -81.3978 139° Southeast 464 534 33,000  Level Cleveland Center
06:20PM 41.6231 -81.2842 140° Southeast 464 534 33,000  Level Cleveland Center
06:21PM 41.5233 -81.1692 139° Southeast 465 535 33,000  Level Cleveland Center
06:22PM 41.4156 -81.0242 135° Southeast 465 535 33,000  Level Cleveland Center
06:23PM 41.3250 -80.8997 134° Southeast 464 534 33,000  Level Cleveland Center
06:24PM 41.2356 -80.7733 133° Southeast 464 534 33,000  Level Cleveland Center
06:25PM 41.1458 -80.6500 134° Southeast 463 533 33,000  Level Cleveland Center
06:26PM 41.0531 -80.5233 134° Southeast 462 532 33,000  Level Cleveland Center
06:27PM 40.9628 -80.4008 134° Southeast 463 533 33,000  Level Cleveland Center
06:29PM 40.8736 -80.2789 134° Southeast 463 533 33,000  Level Cleveland Center
06:30PM 40.7956 -80.1383 126° Southeast 463 533 33,000  Level Cleveland Center
06:31PM 40.7439 -79.9897 115° Southeast 461 531 33,000  Level Cleveland Center
06:32PM 40.6894 -79.8369 115° Southeast 460 529 33,000  Level Cleveland Center
06:33PM 40.6328 -79.6864 116° Southeast 456 525 33,000  Level Cleveland Center
06:34PM 40.5672 -79.5064 116° Southeast 455 524 33,000  Level Cleveland Center
06:35PM 40.5117 -79.3556 116° Southeast 455 524 33,000  Level Cleveland Center
06:36PM 40.4678 -79.2144 112° Southeast 453 521 33,000  Level Cleveland Center
06:37PM 40.4464 -79.0219 98° East 449 517 33,000  Level Cleveland Center
06:38PM 40.4267 -78.8633 99° East 448 516 33,000  Level Cleveland Center
06:39PM 40.4069 -78.7036 99° East 448 516 33,000 -540 Level Cleveland Center
06:40PM 40.3892 -78.5564 99° East 449 517 32,000 -1,500 Descending Cleveland Center
06:41PM 40.3669 -78.3819 99° East 451 519 29,900 -2,220 Descending Cleveland Center
06:42PM 40.3431 -78.1925 99° East 450 518 27,500 -2,160 Descending Cleveland Center
06:43PM 40.3222 -78.0331 100° East 450 518 25,500 -1,260 Descending Cleveland Center
06:44PM 40.3125 -77.8703 94° East 455 524 25,000 -300 Descending Cleveland Center
06:45PM 40.3108 -77.7056 91° East 458 527 25,000 -480 Level Cleveland Center
06:46PM 40.2978 -77.5411 96° East 458 527 24,100 -1,020 Descending Cleveland Center
06:47PM 40.2764 -77.3544 98° East 449 517 23,000 -1,020 Descending Cleveland Center
06:48PM 40.2575 -77.1944 99° East 448 516 22,000 -1,080 Descending Cleveland Center
06:49PM 40.2386 -77.0358 99° East 446 513 20,800 -1,260 Descending Cleveland Center
06:50PM 40.2214 -76.8833 98° East 434 499 19,500 -1,320 Descending Cleveland Center
06:51PM 40.2042 -76.7358 99° East 415 478 18,200 -1,200 Descending Cleveland Center
06:52PM 40.1869 -76.5919 99° East 402 463 17,100 -1,200 Descending Cleveland Center
06:53PM 40.1700 -76.4481 99° East 402 463 15,800 -1,560 Descending Cleveland Center
06:54PM 40.1481 -76.2672 99° East 393 452 13,800 -1,680 Descending New York Center
06:55PM 40.1314 -76.1328 99° East 387 445 12,300 -1,500 Descending New York Center
06:56PM 40.1158 -76.0122 100° East 356 410 10,900 -1,320 Descending New York Center
06:57PM 40.1056 -75.9136 98° East 314 361 9,700 -1,200 Descending New York Center
06:58PM 40.0892 -75.8122 102° East 294 338 8,600 -1,140 Descending New York Center
06:59PM 40.0772 -75.6972 98° East 284 327 7,500 -840 Descending New York Center
07:00PM 40.0725 -75.6103 94° East 276 318 7,000 -300 Descending New York Center
07:01PM 40.0683 -75.5122 93° East 254 292 7,000  Level New York Center
07:02PM 40.0653 -75.4333 93° East 243 280 7,000 -480 Level New York Center
07:03PM 40.0625 -75.3381 92° East 238 274 6,100 -540 Descending New York Center
07:04PM 40.0572 -75.2592 95° East 232 267 6,000 -60 Descending New York Center
07:05PM 40.0303 -75.2006 121° Southeast 209 241 6,000  Level New York Center
07:06PM 39.9800 -75.1567 146° Southeast 197 227 6,000 -300 Level New York Center
07:07PM 39.9906 -75.0950 77° East 178 205 5,500 -540 Descending New York Center
07:08PM 40.0000 -75.0167 81° East 203 234 5,000 -480 Descending Philadelphia TRACON
07:10PM 40.0167 -74.9500 72° East 199 229 4,600 -900 Descending Philadelphia TRACON
07:10PM 39.9667 -74.9333 166° South 177 204 3,200 -840 Descending Philadelphia TRACON
07:12PM 39.9333 -74.9833 229° Southwest 174 200 3,000 -240 Descending Philadelphia TRACON
07:13PM 39.9167 -75.0500 252° West 167 192 2,700 -600 Descending Philadelphia TRACON
07:14PM 39.9000 -75.1000 247° West 169 194 1,800 -900 Descending Philadelphia TRACON
07:14PM 39.8833 -75.1500 247° West 147 169 1,100 -780 Descending Philadelphia TRACON
07:15PM 39.8833 -75.2000 270° West 117 135 400 -720 Descending Philadelphia TRACON